Time;durP1;ratioP1;P1;durP2;ratioP2;P2;SDS_P1;SDS_P2;PMS_P1;PMS_P2;Temp;Humidity;BMP_temperature;BMP_pressure;BME280_temperature;BME280_humidity;BME280_pressure;Samples;Min_cycle;Max_cycle;Signal;HPM_P1;HPM_P2
2022/08/29 00:00:57;;;;;;;1.83;0.80;;;;;;;;;;5033381;28;20601;-58
2022/08/29 00:03:23;;;;;;;0.98;0.70;;;;;;;;;;5035808;28;20083;-56
2022/08/29 00:05:50;;;;;;;0.80;0.60;;;;;;;;;;5033623;28;20037;-52
2022/08/29 00:08:15;;;;;;;2.45;0.80;;;;;;;;;;5035672;28;20164;-55
2022/08/29 00:10:42;;;;;;;1.15;0.90;;;;;;;;;;5037027;28;20068;-54
2022/08/29 00:13:09;;;;;;;1.05;0.80;;;;;;;;;;5033671;28;20038;-59
2022/08/29 00:15:35;;;;;;;0.60;0.60;;;;;;;;;;5034160;28;20049;-57
2022/08/29 00:18:01;;;;;;;0.88;0.77;;;;;;;;;;5032941;28;20081;-59
2022/08/29 00:20:29;;;;;;;1.55;1.00;;;;;;;;;;5034946;28;20767;-55
2022/08/29 00:22:55;;;;;;;1.00;0.82;;;;;;;;;;5031568;28;20045;-55
2022/08/29 00:25:21;;;;;;;1.15;0.85;;;;;;;;;;5039322;28;20414;-58
2022/08/29 00:27:47;;;;;;;1.73;0.65;;;;;;;;;;5030268;28;20576;-57
2022/08/29 00:30:14;;;;;;;0.63;0.60;;;;;;;;;;5034991;28;20107;-56
2022/08/29 00:32:40;;;;;;;0.40;0.40;;;;;;;;;;5034937;28;20593;-56
2022/08/29 00:35:09;;;;;;;0.50;0.50;;;;;;;;;;5033618;28;20117;-56
2022/08/29 00:37:36;;;;;;;1.27;0.90;;;;;;;;;;5035813;28;20072;-58
2022/08/29 00:40:02;;;;;;;1.27;0.90;;;;;;;;;;5036163;28;20065;-58
2022/08/29 00:42:28;;;;;;;0.80;0.68;;;;;;;;;;5034837;28;20133;-57
2022/08/29 00:44:54;;;;;;;0.80;0.60;;;;;;;;;;5033904;28;20124;-58
2022/08/29 00:47:22;;;;;;;0.98;0.60;;;;;;;;;;5034515;28;20041;-58
2022/08/29 00:49:50;;;;;;;0.40;0.40;;;;;;;;;;5033461;28;20716;-56
2022/08/29 00:52:26;;;;;;;0.47;0.40;;;;;;;;;;5033704;28;20103;-57
2022/08/29 00:54:53;;;;;;;0.30;0.30;;;;;;;;;;5032366;28;20451;-58
2022/08/29 00:57:20;;;;;;;0.45;0.43;;;;;;;;;;5039386;28;20057;-58
2022/08/29 00:59:47;;;;;;;0.50;0.50;;;;;;;;;;5044029;28;20503;-60
2022/08/29 01:02:13;;;;;;;0.57;0.50;;;;;;;;;;5046043;28;20501;-57
2022/08/29 01:04:39;;;;;;;0.50;0.50;;;;;;;;;;5047852;28;20094;-57
2022/08/29 01:07:06;;;;;;;0.50;0.40;;;;;;;;;;5048482;28;20562;-56
2022/08/29 01:09:32;;;;;;;0.70;0.43;;;;;;;;;;5047703;28;20091;-58
2022/08/29 01:12:17;;;;;;;0.30;0.30;;;;;;;;;;5048832;28;20053;-56
2022/08/29 01:14:48;;;;;;;0.10;0.10;;;;;;;;;;5047411;28;20106;-56
2022/08/29 01:17:16;;;;;;;0.43;0.40;;;;;;;;;;5048128;28;20045;-58
2022/08/29 01:19:48;;;;;;;0.35;0.30;;;;;;;;;;5047448;28;20052;-58
2022/08/29 01:22:28;;;;;;;0.32;0.28;;;;;;;;;;5048471;28;20056;-56
2022/08/29 01:24:54;;;;;;;0.40;0.40;;;;;;;;;;5046507;28;20048;-55
2022/08/29 01:27:22;;;;;;;0.43;0.30;;;;;;;;;;5048466;28;20099;-56
2022/08/29 01:29:48;;;;;;;0.20;0.20;;;;;;;;;;5047766;28;20497;-55
2022/08/29 01:32:14;;;;;;;0.50;0.32;;;;;;;;;;5047586;28;20045;-58
2022/08/29 01:34:41;;;;;;;0.63;0.30;;;;;;;;;;5047884;28;20398;-55
2022/08/29 01:37:08;;;;;;;0.52;0.38;;;;;;;;;;5047690;28;20053;-56
2022/08/29 01:39:35;;;;;;;0.38;0.30;;;;;;;;;;5047104;28;20044;-56
2022/08/29 01:42:03;;;;;;;0.70;0.32;;;;;;;;;;5047875;28;20053;-59
2022/08/29 01:44:30;;;;;;;0.40;0.22;;;;;;;;;;5048204;28;20099;-55
2022/08/29 01:46:56;;;;;;;0.30;0.30;;;;;;;;;;5047973;28;20045;-58
2022/08/29 01:49:23;;;;;;;0.82;0.52;;;;;;;;;;5047752;28;20041;-56
2022/08/29 01:51:49;;;;;;;0.75;0.55;;;;;;;;;;5047190;28;20107;-58
2022/08/29 01:54:15;;;;;;;1.30;0.57;;;;;;;;;;5044954;28;20041;-55
2022/08/29 01:56:43;;;;;;;0.17;0.17;;;;;;;;;;5047009;28;20056;-58
2022/08/29 01:59:17;;;;;;;0.80;0.22;;;;;;;;;;5047019;28;20143;-57
2022/08/29 02:01:46;;;;;;;0.40;0.32;;;;;;;;;;5047397;28;20049;-54
2022/08/29 02:04:12;;;;;;;0.77;0.43;;;;;;;;;;5047328;28;20033;-58
2022/08/29 02:06:39;;;;;;;0.30;0.30;;;;;;;;;;5046552;28;20442;-58
2022/08/29 02:09:05;;;;;;;0.45;0.40;;;;;;;;;;5047425;28;20576;-54
2022/08/29 02:11:31;;;;;;;0.30;0.30;;;;;;;;;;5047209;28;20045;-59
2022/08/29 02:13:58;;;;;;;0.10;0.10;;;;;;;;;;5046563;28;20045;-55
2022/08/29 02:16:26;;;;;;;0.45;0.30;;;;;;;;;;5047209;28;20458;-56
2022/08/29 02:18:52;;;;;;;0.40;0.20;;;;;;;;;;5029005;28;20063;-58
2022/08/29 02:21:20;;;;;;;0.30;0.20;;;;;;;;;;5046561;28;20033;-57
2022/08/29 02:23:48;;;;;;;0.20;0.20;;;;;;;;;;5046962;28;20057;-59
2022/08/29 02:26:15;;;;;;;0.52;0.47;;;;;;;;;;5044422;28;20547;-56
2022/08/29 02:28:41;;;;;;;1.17;0.32;;;;;;;;;;5046071;28;20045;-55
2022/08/29 02:31:08;;;;;;;0.40;0.30;;;;;;;;;;5046962;28;20045;-55
2022/08/29 02:33:34;;;;;;;0.30;0.30;;;;;;;;;;5046464;28;20079;-56
2022/08/29 02:36:01;;;;;;;0.40;0.30;;;;;;;;;;5046500;28;20052;-60
2022/08/29 02:38:27;;;;;;;0.70;0.47;;;;;;;;;;5046417;28;20036;-55
2022/08/29 02:40:54;;;;;;;0.40;0.40;;;;;;;;;;5044279;28;20041;-55
2022/08/29 02:43:20;;;;;;;0.55;0.40;;;;;;;;;;5028737;28;20148;-58
2022/08/29 02:45:46;;;;;;;0.47;0.40;;;;;;;;;;5045996;28;20128;-59
2022/08/29 02:48:13;;;;;;;0.65;0.50;;;;;;;;;;5045715;28;20045;-55
2022/08/29 02:50:40;;;;;;;0.68;0.50;;;;;;;;;;5046305;28;20485;-57
2022/08/29 02:53:06;;;;;;;0.30;0.30;;;;;;;;;;5046332;28;20059;-58
2022/08/29 02:55:32;;;;;;;0.30;0.20;;;;;;;;;;5045694;28;20049;-54
2022/08/29 02:57:58;;;;;;;0.52;0.45;;;;;;;;;;5028424;28;20138;-56
2022/08/29 03:00:26;;;;;;;0.38;0.30;;;;;;;;;;5046648;28;20466;-57
2022/08/29 03:02:52;;;;;;;0.25;0.25;;;;;;;;;;5045282;28;20051;-57
2022/08/29 03:05:20;;;;;;;0.20;0.10;;;;;;;;;;5046533;28;20048;-54
2022/08/29 03:07:46;;;;;;;0.52;0.30;;;;;;;;;;5045963;28;20049;-58
2022/08/29 03:10:12;;;;;;;0.30;0.22;;;;;;;;;;5045817;28;20140;-56
2022/08/29 03:12:39;;;;;;;0.30;0.17;;;;;;;;;;5045971;28;20409;-58
2022/08/29 03:15:05;;;;;;;0.38;0.10;;;;;;;;;;5045983;28;20442;-55
2022/08/29 03:17:31;;;;;;;0.20;0.20;;;;;;;;;;5045132;28;20045;-58
2022/08/29 03:19:58;;;;;;;0.32;0.20;;;;;;;;;;5046341;28;20056;-55
2022/08/29 03:22:24;;;;;;;0.20;0.20;;;;;;;;;;5046138;28;20041;-56
2022/08/29 03:24:50;;;;;;;0.20;0.20;;;;;;;;;;5044353;28;20565;-57
2022/08/29 03:27:17;;;;;;;0.43;0.30;;;;;;;;;;5046227;28;20459;-55
2022/08/29 03:29:43;;;;;;;0.30;0.10;;;;;;;;;;5045598;28;20755;-56
2022/08/29 03:32:09;;;;;;;0.20;0.20;;;;;;;;;;5044781;28;20584;-57
2022/08/29 03:34:35;;;;;;;0.50;0.30;;;;;;;;;;5045889;28;20043;-56
2022/08/29 03:37:01;;;;;;;0.38;0.20;;;;;;;;;;5045269;28;20217;-56
2022/08/29 03:39:28;;;;;;;0.20;0.20;;;;;;;;;;5045877;28;20041;-55
2022/08/29 03:41:54;;;;;;;0.10;0.10;;;;;;;;;;5045339;28;20055;-55
2022/08/29 03:44:21;;;;;;;0.20;0.20;;;;;;;;;;5045222;28;20087;-56
2022/08/29 03:46:47;;;;;;;0.10;0.10;;;;;;;;;;5044306;28;20053;-55
2022/08/29 03:49:14;;;;;;;0.25;0.13;;;;;;;;;;5045743;28;20041;-54
2022/08/29 03:51:40;;;;;;;0.38;0.20;;;;;;;;;;5044721;28;20040;-55
2022/08/29 03:54:07;;;;;;;0.30;0.20;;;;;;;;;;5045462;28;20091;-57
2022/08/29 03:56:33;;;;;;;0.15;0.13;;;;;;;;;;5045054;28;20041;-55
2022/08/29 03:58:59;;;;;;;0.15;0.10;;;;;;;;;;5044820;28;20528;-57
2022/08/29 04:01:27;;;;;;;1.02;0.10;;;;;;;;;;5045149;28;20493;-58
2022/08/29 04:03:54;;;;;;;0.40;0.40;;;;;;;;;;5044969;28;20045;-55
2022/08/29 04:06:21;;;;;;;0.20;0.20;;;;;;;;;;5044888;28;20045;-58
2022/08/29 04:08:47;;;;;;;0.20;0.20;;;;;;;;;;5044522;28;20051;-57
2022/08/29 04:11:14;;;;;;;0.20;0.20;;;;;;;;;;5040257;28;20049;-56
2022/08/29 04:13:40;;;;;;;0.43;0.30;;;;;;;;;;5044045;28;20148;-55
2022/08/29 04:16:13;;;;;;;0.13;0.10;;;;;;;;;;5044865;28;20505;-55
2022/08/29 04:18:39;;;;;;;0.52;0.17;;;;;;;;;;5044948;28;20051;-56
2022/08/29 04:21:06;;;;;;;0.30;0.10;;;;;;;;;;5043868;28;20213;-58
2022/08/29 04:23:33;;;;;;;0.47;0.30;;;;;;;;;;5044704;28;20094;-54
2022/08/29 04:25:59;;;;;;;0.20;0.20;;;;;;;;;;5042819;28;20037;-57
2022/08/29 04:28:25;;;;;;;0.32;0.20;;;;;;;;;;5044210;28;20051;-58
2022/08/29 04:30:52;;;;;;;0.20;0.20;;;;;;;;;;5044243;28;20067;-55
2022/08/29 04:33:19;;;;;;;0.30;0.25;;;;;;;;;;5044046;28;20072;-55
2022/08/29 04:35:45;;;;;;;0.50;0.30;;;;;;;;;;5043528;28;20428;-60
2022/08/29 04:38:11;;;;;;;0.30;0.30;;;;;;;;;;5044235;28;20066;-57
2022/08/29 04:40:39;;;;;;;0.25;0.20;;;;;;;;;;5043759;28;20409;-56
2022/08/29 04:43:05;;;;;;;0.20;0.20;;;;;;;;;;5044659;28;20460;-55
2022/08/29 04:45:32;;;;;;;0.20;0.20;;;;;;;;;;5044482;28;20136;-60
2022/08/29 04:47:58;;;;;;;0.30;0.20;;;;;;;;;;5043681;28;20064;-55
2022/08/29 04:50:25;;;;;;;0.20;0.10;;;;;;;;;;5044896;28;20094;-56
2022/08/29 04:52:51;;;;;;;0.20;0.20;;;;;;;;;;5044042;28;20087;-55
2022/08/29 04:55:18;;;;;;;0.10;0.10;;;;;;;;;;5044200;28;20068;-52
2022/08/29 04:57:44;;;;;;;0.73;0.25;;;;;;;;;;5044053;28;20059;-55
2022/08/29 05:00:12;;;;;;;0.30;0.20;;;;;;;;;;5041984;28;20049;-52
2022/08/29 05:02:39;;;;;;;0.52;0.17;;;;;;;;;;5041170;28;20072;-54
2022/08/29 05:05:06;;;;;;;0.10;0.10;;;;;;;;;;5044450;28;20493;-57
2022/08/29 05:07:32;;;;;;;0.10;0.10;;;;;;;;;;5044575;28;20512;-55
2022/08/29 05:10:00;;;;;;;0.40;0.20;;;;;;;;;;5043780;28;20106;-56
2022/08/29 05:12:30;;;;;;;0.40;0.20;;;;;;;;;;5045216;28;20099;-57
2022/08/29 05:14:56;;;;;;;0.40;0.20;;;;;;;;;;5045053;28;20045;-55
2022/08/29 05:17:23;;;;;;;0.10;0.10;;;;;;;;;;5040819;28;20047;-56
2022/08/29 05:19:49;;;;;;;0.20;0.20;;;;;;;;;;5043185;28;20056;-57
2022/08/29 05:22:16;;;;;;;0.15;0.13;;;;;;;;;;5041638;28;20076;-57
2022/08/29 05:24:42;;;;;;;0.30;0.30;;;;;;;;;;5041953;28;20065;-57
2022/08/29 05:27:13;;;;;;;0.32;0.10;;;;;;;;;;5041592;28;20102;-56
2022/08/29 05:29:43;;;;;;;0.88;0.40;;;;;;;;;;5043582;28;20464;-57
2022/08/29 05:32:09;;;;;;;0.20;0.13;;;;;;;;;;5044348;28;20087;-57
2022/08/29 05:34:36;;;;;;;0.10;0.10;;;;;;;;;;5044114;28;20129;-56
2022/08/29 05:37:04;;;;;;;0.10;0.05;;;;;;;;;;5043356;28;20041;-56
2022/08/29 05:39:30;;;;;;;0.00;0.00;;;;;;;;;;5045113;28;20400;-59
2022/08/29 05:41:57;;;;;;;0.73;0.30;;;;;;;;;;5043066;28;20055;-57
2022/08/29 05:44:23;;;;;;;0.10;0.10;;;;;;;;;;5043625;28;20124;-59
2022/08/29 05:46:49;;;;;;;0.13;0.13;;;;;;;;;;5042592;28;20065;-56
2022/08/29 05:49:15;;;;;;;0.60;0.10;;;;;;;;;;5046698;28;20037;-55
2022/08/29 05:51:41;;;;;;;0.30;0.10;;;;;;;;;;5046924;28;20129;-57
2022/08/29 05:54:07;;;;;;;0.10;0.10;;;;;;;;;;5047689;28;20116;-58
2022/08/29 05:56:34;;;;;;;0.10;0.10;;;;;;;;;;5047549;28;20057;-58
2022/08/29 05:59:00;;;;;;;0.00;0.00;;;;;;;;;;5042251;28;20080;-58
2022/08/29 06:01:28;;;;;;;0.10;0.10;;;;;;;;;;5047501;28;20040;-58
2022/08/29 06:03:54;;;;;;;0.10;0.10;;;;;;;;;;5047135;28;20530;-57
2022/08/29 06:06:24;;;;;;;0.08;0.08;;;;;;;;;;5047119;28;20080;-54
2022/08/29 06:08:50;;;;;;;0.25;0.00;;;;;;;;;;5047193;28;20044;-56
2022/08/29 06:11:17;;;;;;;0.10;0.10;;;;;;;;;;5045928;28;20047;-56
2022/08/29 06:13:43;;;;;;;0.43;0.13;;;;;;;;;;5046413;28;20045;-59
2022/08/29 06:16:13;;;;;;;0.17;0.17;;;;;;;;;;5046876;28;20087;-58
2022/08/29 06:18:39;;;;;;;0.10;0.10;;;;;;;;;;5046915;28;20029;-57
2022/08/29 06:21:06;;;;;;;0.20;0.20;;;;;;;;;;5025407;28;20098;-57
2022/08/29 06:23:32;;;;;;;0.22;0.17;;;;;;;;;;5029027;28;20007;-59
2022/08/29 06:25:59;;;;;;;0.30;0.22;;;;;;;;;;5046170;28;20045;-58
2022/08/29 06:28:29;;;;;;;1.10;0.30;;;;;;;;;;5047059;28;20496;-58
2022/08/29 06:30:55;;;;;;;;;;;;;;;;;;5046807;28;20045;-56
2022/08/29 06:33:21;;;;;;;;;;;;;;;;;;5043765;28;20348;-56
2022/08/29 06:35:47;;;;;;;;;;;;;;;;;;5040473;28;19955;-54
2022/08/29 06:38:13;;;;;;;;;;;;;;;;;;5045281;28;20332;-54
2022/08/29 06:40:39;;;;;;;;;;;;;;;;;;5046536;28;20019;-59
2022/08/29 06:43:05;;;;;;;;;;;;;;;;;;5047222;28;20517;-57
2022/08/29 06:45:31;;;;;;;;;;;;;;;;;;5044746;28;19927;-55
2022/08/29 06:47:57;;;;;;;;;;;;;;;;;;5039019;28;19925;-56
2022/08/29 06:50:23;;;;;;;;;;;;;;;;;;5046808;28;19931;-56
2022/08/29 06:52:49;;;;;;;;;;;;;;;;;;5045929;28;20297;-57
2022/08/29 06:55:15;;;;;;;;;;;;;;;;;;5047091;28;19928;-57
2022/08/29 06:57:43;;;;;;;;;;;;;;;;;;5045530;28;19921;-55
2022/08/29 07:00:11;;;;;;;;;;;;;;;;;;5044696;28;19932;-58
2022/08/29 07:02:37;;;;;;;;;;;;;;;;;;5026477;28;20274;-57
2022/08/29 07:05:03;;;;;;;;;;;;;;;;;;5026799;28;19921;-57
2022/08/29 07:07:29;;;;;;;;;;;;;;;;;;5034932;28;20623;-57
2022/08/29 07:09:55;;;;;;;;;;;;;;;;;;5035781;28;19924;-53
2022/08/29 07:12:22;;;;;;;;;;;;;;;;;;5040044;28;20235;-57
2022/08/29 07:14:48;;;;;;;;;;;;;;;;;;5045959;28;19925;-55
2022/08/29 07:17:14;;;;;;;;;;;;;;;;;;5040984;28;19932;-56
2022/08/29 07:19:39;;;;;;;;;;;;;;;;;;5030470;28;19940;-56
2022/08/29 07:22:06;;;;;;;;;;;;;;;;;;5041219;28;19964;-52
2022/08/29 07:24:33;;;;;;;;;;;;;;;;;;5033796;28;20367;-57
2022/08/29 07:26:59;;;;;;;;;;;;;;;;;;5033663;28;19925;-56
2022/08/29 07:29:25;;;;;;;;;;;;;;;;;;5026416;28;20369;-61
2022/08/29 07:31:50;;;;;;;;;;;;;;;;;;5026982;28;19925;-61
2022/08/29 07:34:18;;;;;;;;;;;;;;;;;;5027295;28;20429;-55
2022/08/29 07:36:44;;;;;;;;;;;;;;;;;;5026024;28;19937;-55
2022/08/29 07:39:10;;;;;;;;;;;;;;;;;;5024806;28;19925;-56
2022/08/29 07:41:35;;;;;;;;;;;;;;;;;;5030471;28;20329;-57
2022/08/29 07:44:01;;;;;;;;;;;;;;;;;;5037862;28;19920;-57
2022/08/29 07:46:28;;;;;;;;;;;;;;;;;;5039091;28;19928;-55
2022/08/29 07:48:54;;;;;;;;;;;;;;;;;;5034294;28;19932;-56
2022/08/29 07:51:21;;;;;;;;;;;;;;;;;;5031857;28;19921;-55
2022/08/29 07:53:48;;;;;;;0.60;0.40;;;;;;;;;;5025425;28;19931;-56
2022/08/29 07:56:14;;;;;;;;;;;;;;;;;;5025572;28;20053;-56
2022/08/29 07:58:40;;;;;;;;;;;;;;;;;;5041954;28;19920;-57
2022/08/29 08:01:06;;;;;;;0.20;0.20;;;;;;;;;;5045941;28;19960;-57
2022/08/29 08:03:32;;;;;;;;;;;;;;;;;;5045750;28;20028;-58
2022/08/29 08:05:58;;;;;;;0.50;0.50;;;;;;;;;;5040839;28;20662;-55
2022/08/29 08:08:24;;;;;;;0.57;0.55;;;;;;;;;;5036121;28;20099;-56
2022/08/29 08:10:51;;;;;;;1.15;0.40;;;;;;;;;;5031296;28;20108;-55
2022/08/29 08:13:17;;;;;;;1.05;0.43;;;;;;;;;;5039958;28;20041;-56
2022/08/29 08:15:43;;;;;;;0.63;0.50;;;;;;;;;;5046068;28;20124;-56
2022/08/29 08:18:09;;;;;;;2.03;0.52;;;;;;;;;;5045948;28;20132;-57
2022/08/29 08:20:35;;;;;;;1.75;0.60;;;;;;;;;;5045008;28;20493;-55
2022/08/29 08:23:01;;;;;;;;;;;;;;;;;;5046479;28;20581;-60
2022/08/29 08:25:27;;;;;;;;;;;;;;;;;;5046787;28;20023;-57
2022/08/29 08:27:53;;;;;;;;;;;;;;;;;;5045505;28;19921;-58
2022/08/29 08:30:19;;;;;;;0.38;0.38;;;;;;;;;;5046108;28;19939;-57
2022/08/29 08:32:45;;;;;;;0.73;0.40;;;;;;;;;;5044338;28;20041;-60
2022/08/29 08:35:11;;;;;;;;;;;;;;;;;;5043688;28;20045;-54
2022/08/29 08:37:37;;;;;;;;;;;;;;;;;;5046208;28;20003;-57
2022/08/29 08:40:03;;;;;;;;;;;;;;;;;;5045230;28;19924;-55
2022/08/29 08:42:29;;;;;;;;;;;;;;;;;;5046080;28;20645;-58
2022/08/29 08:44:55;;;;;;;;;;;;;;;;;;5046331;28;20328;-55
2022/08/29 08:47:21;;;;;;;;;;;;;;;;;;5029020;28;19925;-55
2022/08/29 08:50:03;;;;;;;0.20;0.20;;;;;;;;;;5039279;28;20437;-57
2022/08/29 08:52:41;;;;;;;0.55;0.30;;;;;;;;;;5041552;28;20045;-57
2022/08/29 08:55:33;;;;;;;0.65;0.30;;;;;;;;;;5044794;28;20045;-55
2022/08/29 08:57:59;;;;;;;;;;;;;;;;;;5041897;28;20754;-57
2022/08/29 09:00:25;;;;;;;;;;;;;;;;;;5045779;28;19967;-55
2022/08/29 09:02:51;;;;;;;;;;;;;;;;;;5045037;28;20073;-54
2022/08/29 09:05:18;;;;;;;;;;;;;;;;;;5044556;28;20022;-58
2022/08/29 09:07:44;;;;;;;;;;;;;;;;;;5036194;28;19928;-58
2022/08/29 09:10:10;;;;;;;;;;;;;;;;;;5030271;28;19947;-56
2022/08/29 09:13:00;;;;;;;0.50;0.30;;;;;;;;;;5045637;28;19921;-57
2022/08/29 09:15:41;;;;;;;0.50;0.40;;;;;;;;;;5025575;28;20106;-52
2022/08/29 09:18:11;;;;;;;0.77;0.40;;;;;;;;;;5035392;28;19925;-55
2022/08/29 09:20:38;;;;;;;0.40;0.40;;;;;;;;;;5045464;28;20160;-55
2022/08/29 09:23:13;;;;;;;2.30;1.08;;;;;;;;;;5036970;28;20103;-55
2022/08/29 09:25:39;;;;;;;2.17;1.27;;;;;;;;;;5029317;28;20045;-56
2022/08/29 09:28:06;;;;;;;1.80;1.33;;;;;;;;;;5034311;28;20175;-57
2022/08/29 09:30:32;;;;;;;1.50;1.20;;;;;;;;;;5048472;28;20116;-57
2022/08/29 09:33:10;;;;;;;1.57;1.30;;;;;;;;;;5049605;28;20119;-57
2022/08/29 09:35:43;;;;;;;4.40;2.08;;;;;;;;;;5048890;28;20053;-55
2022/08/29 09:38:24;;;;;;;2.78;1.40;;;;;;;;;;5048128;28;20078;-57
2022/08/29 09:40:50;;;;;;;;;;;;;;;;;;5047022;28;20095;-55
2022/08/29 09:43:16;;;;;;;;;;;;;;;;;;5048446;28;19972;-54
2022/08/29 09:46:01;;;;;;;3.28;1.95;;;;;;;;;;5047081;28;19963;-54
2022/08/29 09:48:27;;;;;;;2.28;1.70;;;;;;;;;;5046196;28;20554;-55
2022/08/29 09:51:08;;;;;;;3.85;2.60;;;;;;;;;;5027911;28;20132;-56
2022/08/29 09:53:33;;;;;;;3.25;1.90;;;;;;;;;;5033772;28;20508;-57
2022/08/29 09:56:03;;;;;;;4.10;1.83;;;;;;;;;;5037738;28;20053;-55
2022/08/29 09:58:33;;;;;;;2.10;1.90;;;;;;;;;;5038398;28;20055;-59
2022/08/29 10:01:11;;;;;;;3.03;1.85;;;;;;;;;;5040453;28;20505;-58
2022/08/29 10:03:40;;;;;;;2.28;1.70;;;;;;;;;;5040231;28;20052;-56
2022/08/29 10:06:13;;;;;;;2.92;1.63;;;;;;;;;;5030116;28;20126;-56
2022/08/29 10:08:39;;;;;;;;;;;;;;;;;;5041013;28;20126;-60
2022/08/29 10:11:07;;;;;;;5.28;2.22;;;;;;;;;;5032779;28;20698;-55
2022/08/29 10:13:46;;;;;;;3.28;2.13;;;;;;;;;;5027629;28;20085;-54
2022/08/29 10:16:12;;;;;;;;;;;;;;;;;;5038167;28;20114;-57
2022/08/29 10:18:49;;;;;;;10.23;2.22;;;;;;;;;;5037105;28;19924;-54
2022/08/29 10:21:28;;;;;;;2.60;2.00;;;;;;;;;;5028314;28;20049;-56
2022/08/29 10:23:58;;;;;;;8.40;1.92;;;;;;;;;;5027905;28;20045;-55
2022/08/29 10:26:47;;;;;;;3.15;1.70;;;;;;;;;;5027581;28;20107;-57
2022/08/29 10:29:16;;;;;;;2.53;1.65;;;;;;;;;;5037233;28;20527;-55
2022/08/29 10:31:42;;;;;;;;;;;;;;;;;;5035754;28;20045;-54
2022/08/29 10:34:08;;;;;;;;;;;;;;;;;;5041174;28;19925;-54
2022/08/29 10:36:37;;;;;;;2.50;2.10;;;;;;;;;;5028530;28;19947;-54
2022/08/29 10:39:14;;;;;;;4.90;2.03;;;;;;;;;;5027448;28;20144;-57
2022/08/29 10:41:40;;;;;;;;;;;;;;;;;;5033265;28;20094;-56
2022/08/29 10:44:07;;;;;;;;;;;;;;;;;;5045045;28;19928;-54
2022/08/29 10:46:32;;;;;;;;;;;;;;;;;;5046046;28;19921;-57
2022/08/29 10:48:58;;;;;;;;;;;;;;;;;;5048228;28;19924;-55
2022/08/29 10:51:24;;;;;;;;;;;;;;;;;;5048167;28;19928;-56
2022/08/29 10:53:50;;;;;;;;;;;;;;;;;;5044754;28;19921;-55
2022/08/29 10:56:21;;;;;;;2.40;1.73;;;;;;;;;;5045118;28;20055;-52
2022/08/29 10:58:50;;;;;;;4.47;2.27;;;;;;;;;;5046046;28;20048;-56
2022/08/29 11:01:26;;;;;;;2.65;1.73;;;;;;;;;;5046912;28;20294;-52
2022/08/29 11:04:16;;;;;;;8.77;2.15;;;;;;;;;;5045143;28;20053;-56
2022/08/29 11:07:01;;;;;;;3.50;1.67;;;;;;;;;;5046103;28;20167;-54
2022/08/29 11:09:33;;;;;;;6.70;2.05;;;;;;;;;;5046350;28;20084;-52
2022/08/29 11:12:04;;;;;;;5.33;2.57;;;;;;;;;;5047198;28;20160;-55
2022/08/29 11:14:33;;;;;;;3.17;1.52;;;;;;;;;;5047061;28;20045;-52
2022/08/29 11:17:01;;;;;;;6.60;2.30;;;;;;;;;;5047827;28;20049;-57
2022/08/29 11:19:30;;;;;;;6.18;2.50;;;;;;;;;;5047959;28;20044;-53
2022/08/29 11:22:01;;;;;;;4.43;1.85;;;;;;;;;;5046075;28;20059;-54
2022/08/29 11:24:29;;;;;;;2.97;1.70;;;;;;;;;;5046236;28;20049;-56
2022/08/29 11:27:05;;;;;;;4.10;1.83;;;;;;;;;;5041654;28;20558;-56
2022/08/29 11:29:40;;;;;;;4.68;1.67;;;;;;;;;;5040402;28;20057;-61
2022/08/29 11:32:25;;;;;;;2.08;1.45;;;;;;;;;;5028362;28;20132;-54
2022/08/29 11:35:12;;;;;;;6.32;2.17;;;;;;;;;;5029128;28;20261;-54
2022/08/29 11:37:56;;;;;;;2.92;1.67;;;;;;;;;;5038961;28;20063;-58
2022/08/29 11:40:36;;;;;;;3.85;1.77;;;;;;;;;;5026941;28;20627;-55
2022/08/29 11:43:04;;;;;;;3.10;1.48;;;;;;;;;;5025837;28;20110;-56
2022/08/29 11:45:34;;;;;;;4.05;1.90;;;;;;;;;;5026243;28;20053;-58
2022/08/29 11:48:09;;;;;;;4.20;1.98;;;;;;;;;;5040728;28;20060;-52
2022/08/29 11:50:36;;;;;;;5.28;2.03;;;;;;;;;;5036031;28;20048;-56
2022/08/29 11:53:07;;;;;;;3.40;1.40;;;;;;;;;;5044192;28;20044;-55
2022/08/29 11:55:40;;;;;;;3.20;1.95;;;;;;;;;;5038908;28;19928;-56
2022/08/29 11:58:26;;;;;;;4.10;2.00;;;;;;;;;;5027064;28;20651;-53
2022/08/29 12:00:56;;;;;;;3.42;1.92;;;;;;;;;;5033397;28;20083;-57
2022/08/29 12:03:28;;;;;;;4.50;1.73;;;;;;;;;;5045550;28;20151;-53
2022/08/29 12:05:58;;;;;;;4.32;2.00;;;;;;;;;;5044087;28;20504;-55
2022/08/29 12:08:35;;;;;;;3.13;2.05;;;;;;;;;;5045147;28;20128;-58
2022/08/29 12:11:01;;;;;;;;;;;;;;;;;;5043795;28;20045;-59
2022/08/29 12:13:27;;;;;;;;;;;;;;;;;;5039959;28;19920;-56
2022/08/29 12:15:53;;;;;;;;;;;;;;;;;;5040287;28;20395;-55
2022/08/29 12:18:19;;;;;;;;;;;;;;;;;;5032288;28;19924;-56
2022/08/29 12:20:45;;;;;;;;;;;;;;;;;;5026477;28;19939;-60
2022/08/29 12:23:14;;;;;;;;;;;;;;;;;;5033775;28;20401;-57
2022/08/29 12:25:43;;;;;;;;;;;;;;;;;;5018852;28;19991;-57
2022/08/29 12:28:10;;;;;;;;;;;;;;;;;;5040453;28;19972;-55
2022/08/29 12:30:42;;;;;;;7.25;1.88;;;;;;;;;;5032628;28;19921;-58
2022/08/29 12:33:26;;;;;;;4.05;1.60;;;;;;;;;;5039889;28;20276;-58
2022/08/29 12:35:53;;;;;;;;;;;;;;;;;;5031325;28;20095;-57
2022/08/29 12:38:19;;;;;;;;;;;;;;;;;;5038011;28;19928;-56
2022/08/29 12:40:44;;;;;;;;;;;;;;;;;;5032336;28;19944;-59
2022/08/29 12:43:17;;;;;;;4.35;1.85;;;;;;;;;;5038721;28;19932;-56
2022/08/29 12:45:43;;;;;;;3.33;1.88;;;;;;;;;;5043291;28;20049;-55
2022/08/29 12:48:15;;;;;;;2.75;2.08;;;;;;;;;;5040972;28;20049;-55
2022/08/29 12:50:44;;;;;;;2.50;1.33;;;;;;;;;;5044791;28;20048;-55
2022/08/29 12:53:09;;;;;;;;;;;;;;;;;;5039975;28;20061;-55
2022/08/29 12:55:37;;;;;;;;;;;;;;;;;;5038435;28;19928;-56
2022/08/29 12:58:03;;;;;;;;;;;;;;;;;;5034683;28;19978;-53
2022/08/29 13:00:29;;;;;;;;;;;;;;;;;;5043495;28;19928;-56
2022/08/29 13:02:54;;;;;;;;;;;;;;;;;;5041204;28;20351;-52
2022/08/29 13:05:21;;;;;;;;;;;;;;;;;;5043469;28;19979;-53
2022/08/29 13:07:47;;;;;;;;;;;;;;;;;;5039199;28;20403;-53
2022/08/29 13:10:13;;;;;;;;;;;;;;;;;;5049558;28;19921;-54
2022/08/29 13:12:39;;;;;;;;;;;;;;;;;;5041395;28;19972;-54
2022/08/29 13:15:05;;;;;;;;;;;;;;;;;;5040644;28;20646;-55
2022/08/29 13:17:31;;;;;;;;;;;;;;;;;;5046415;28;19966;-58
2022/08/29 13:19:57;;;;;;;;;;;;;;;;;;5040789;28;19921;-51
2022/08/29 13:22:23;;;;;;;;;;;;;;;;;;5043266;28;19921;-52
2022/08/29 13:24:49;;;;;;;;;;;;;;;;;;5041030;28;19925;-54
2022/08/29 13:27:15;;;;;;;;;;;;;;;;;;5044276;28;19921;-53
2022/08/29 13:29:41;;;;;;;;;;;;;;;;;;5036435;28;19975;-54
2022/08/29 13:32:07;;;;;;;;;;;;;;;;;;5048043;28;20007;-56
2022/08/29 13:34:33;;;;;;;;;;;;;;;;;;5045500;28;20377;-55
2022/08/29 13:36:59;;;;;;;;;;;;;;;;;;5038405;28;19932;-57
2022/08/29 13:39:25;;;;;;;;;;;;;;;;;;5045129;28;19931;-53
2022/08/29 13:41:51;;;;;;;;;;;;;;;;;;5047473;28;20419;-54
2022/08/29 13:44:18;;;;;;;;;;;;;;;;;;5041415;28;20023;-56
2022/08/29 13:46:46;;;;;;;;;;;;;;;;;;5030544;28;19925;-54
2022/08/29 13:49:12;;;;;;;;;;;;;;;;;;5043370;28;19928;-54
2022/08/29 13:51:37;;;;;;;;;;;;;;;;;;5044530;28;19921;-55
2022/08/29 13:54:03;;;;;;;;;;;;;;;;;;5038889;28;19974;-54
2022/08/29 13:56:29;;;;;;;;;;;;;;;;;;5037395;28;19925;-56
2022/08/29 13:58:55;;;;;;;3.75;1.45;;;;;;;;;;5042460;28;20003;-53
2022/08/29 14:01:22;;;;;;;3.63;1.65;;;;;;;;;;5032764;28;20136;-55
2022/08/29 14:03:49;;;;;;;4.43;1.27;;;;;;;;;;5027715;28;20053;-54
2022/08/29 14:06:17;;;;;;;4.93;1.40;;;;;;;;;;5028792;28;20042;-54
2022/08/29 14:08:43;;;;;;;4.40;1.50;;;;;;;;;;5027843;28;20049;-55
2022/08/29 14:11:09;;;;;;;3.23;1.40;;;;;;;;;;5027504;28;20096;-54
2022/08/29 14:13:35;;;;;;;2.10;1.50;;;;;;;;;;5028258;28;19964;-57
2022/08/29 14:16:02;;;;;;;2.72;1.02;;;;;;;;;;5028153;28;20049;-59
2022/08/29 14:18:28;;;;;;;3.13;1.30;;;;;;;;;;5027605;28;20521;-56
2022/08/29 14:20:54;;;;;;;;;;;;;;;;;;5027826;28;20049;-55
2022/08/29 14:23:20;;;;;;;;;;;;;;;;;;5028871;28;19935;-56
2022/08/29 14:25:46;;;;;;;;;;;;;;;;;;5027634;28;20398;-56
2022/08/29 14:28:12;;;;;;;;;;;;;;;;;;5028511;28;19921;-54
2022/08/29 14:30:37;;;;;;;;;;;;;;;;;;5028740;28;19970;-54
2022/08/29 14:33:03;;;;;;;;;;;;;;;;;;5027831;28;20553;-56
2022/08/29 14:35:29;;;;;;;;;;;;;;;;;;5029171;28;19940;-56
2022/08/29 14:37:55;;;;;;;;;;;;;;;;;;5028133;28;19925;-55
2022/08/29 14:40:21;;;;;;;;;;;;;;;;;;5027753;28;20499;-54
2022/08/29 14:42:47;;;;;;;;;;;;;;;;;;5027878;28;20006;-56
2022/08/29 14:45:13;;;;;;;;;;;;;;;;;;5028328;28;20082;-57
2022/08/29 14:47:39;;;;;;;;;;;;;;;;;;5028065;28;20006;-54
2022/08/29 14:50:05;;;;;;;;;;;;;;;;;;5036076;28;20397;-53
2022/08/29 14:52:31;;;;;;;;;;;;;;;;;;5046221;28;19920;-59
2022/08/29 14:54:57;;;;;;;;;;;;;;;;;;5046442;28;19920;-55
2022/08/29 14:57:23;;;;;;;;;;;;;;;;;;5045715;28;19928;-56
2022/08/29 14:59:49;;;;;;;;;;;;;;;;;;5037392;28;20626;-53
2022/08/29 15:02:15;;;;;;;;;;;;;;;;;;5027161;28;19925;-56
2022/08/29 15:04:41;;;;;;;;;;;;;;;;;;5037919;28;19967;-55
2022/08/29 15:07:07;;;;;;;;;;;;;;;;;;5036483;28;20752;-56
2022/08/29 15:09:33;;;;;;;;;;;;;;;;;;5039889;28;19925;-58
2022/08/29 15:11:59;;;;;;;;;;;;;;;;;;5035449;28;19971;-56
2022/08/29 15:14:25;;;;;;;;;;;;;;;;;;5045244;28;19974;-56
2022/08/29 15:16:51;;;;;;;;;;;;;;;;;;5043014;28;20313;-56
2022/08/29 15:19:17;;;;;;;;;;;;;;;;;;5041790;28;20341;-54
2022/08/29 15:21:43;;;;;;;;;;;;;;;;;;5042771;28;19921;-54
2022/08/29 15:24:09;;;;;;;;;;;;;;;;;;5032516;28;20297;-56
2022/08/29 15:26:34;;;;;;;;;;;;;;;;;;5031883;28;19921;-58